Time;durP1;ratioP1;P1;durP2;ratioP2;P2;SDS_P1;SDS_P2;PMS_P1;PMS_P2;Temp;Humidity;BMP_temperature;BMP_pressure;BME280_temperature;BME280_humidity;BME280_pressure;Samples;Min_cycle;Max_cycle;Signal;HPM_P1;HPM_P2
2022/04/26 03:36:39;;;;;;;3.50;1.23;;;;;;;8.74;100.00;99842.63;5082811;28;20499;-53
2022/04/26 03:39:07;;;;;;;0.30;0.20;;;;;;;8.85;100.00;99843.19;5071113;28;20469;-53
2022/04/26 03:41:34;;;;;;;0.30;0.20;;;;;;;8.90;100.00;99847.44;5088956;28;20510;-52
2022/04/26 03:44:01;;;;;;;0.30;0.20;;;;;;;8.77;100.00;99840.78;5082762;28;20488;-53
2022/04/26 03:46:28;;;;;;;0.30;0.20;;;;;;;8.86;100.00;99843.13;5082310;28;20446;-52
2022/04/26 03:48:54;;;;;;;0.33;0.23;;;;;;;8.91;100.00;99835.06;5088013;28;20477;-53
2022/04/26 03:51:21;;;;;;;0.30;0.27;;;;;;;8.82;100.00;99851.22;5088906;28;20448;-53
2022/04/26 03:53:48;;;;;;;0.30;0.20;;;;;;;8.93;100.00;99849.16;5076792;28;20479;-52
2022/04/26 03:56:14;;;;;;;0.30;0.20;;;;;;;8.98;100.00;99849.88;5090471;28;20478;-53
2022/04/26 03:58:41;;;;;;;0.30;0.20;;;;;;;8.98;100.00;99846.34;5087020;28;20470;-50
2022/04/26 04:01:07;;;;;;;0.43;0.43;;;;;;;8.80;100.00;99853.94;5088844;28;20862;-50
2022/04/26 04:03:38;;;;;;;0.30;0.20;;;;;;;8.70;100.00;99857.75;5072485;28;20499;-51
2022/04/26 04:06:05;;;;;;;0.80;0.80;;;;;;;8.72;100.00;99861.22;5081644;28;20484;-49
2022/04/26 04:08:31;;;;;;;0.30;0.20;;;;;;;8.73;100.00;99859.44;5086025;28;20465;-53
2022/04/26 04:10:58;;;;;;;0.30;0.20;;;;;;;8.76;100.00;99859.34;5088890;28;20473;-53
2022/04/26 04:13:24;;;;;;;0.83;0.83;;;;;;;8.72;100.00;99863.88;5084443;28;20483;-53
2022/04/26 04:15:51;;;;;;;0.30;0.20;;;;;;;8.70;100.00;99857.75;5081651;28;20506;-52
2022/04/26 04:21:02;;;;;;;0.30;0.20;;;;;;;8.63;100.00;99872.06;5088356;28;20476;-53
2022/04/26 04:23:29;;;;;;;0.30;0.20;;;;;;;8.58;100.00;99873.97;5083007;28;20993;-53
2022/04/26 04:25:56;;;;;;;0.30;0.20;;;;;;;8.74;100.00;99874.41;5088553;28;20453;-53
2022/04/26 04:28:22;;;;;;;1.53;1.53;;;;;;;8.86;100.00;99879.38;5087455;28;20519;-52
2022/04/26 04:30:49;;;;;;;0.67;0.67;;;;;;;8.70;100.00;99886.88;5081051;28;21012;-51
2022/04/26 04:33:15;;;;;;;0.30;0.20;;;;;;;8.72;100.00;99885.06;5082397;28;20468;-52
2022/04/26 04:35:42;;;;;;;0.30;0.20;;;;;;;8.72;100.00;99897.44;5088035;28;20500;-53
2022/04/26 04:38:08;;;;;;;0.30;0.20;;;;;;;8.66;100.00;99903.78;5087032;28;20473;-52
2022/04/26 04:40:35;;;;;;;0.30;0.20;;;;;;;9.10;100.00;99899.88;5075114;28;20499;-53
2022/04/26 04:43:02;;;;;;;0.30;0.20;;;;;;;8.90;100.00;99902.22;5087113;28;20484;-53
2022/04/26 04:45:28;;;;;;;0.40;0.30;;;;;;;8.74;100.00;99907.06;5081038;28;20449;-52
2022/04/26 04:47:55;;;;;;;0.40;0.30;;;;;;;8.82;100.00;99912.19;5081332;28;20513;-53
2022/04/26 04:50:21;;;;;;;0.67;0.67;;;;;;;8.94;100.00;99910.97;5087771;28;20959;-53
2022/04/26 04:52:48;;;;;;;1.13;1.13;;;;;;;9.12;100.00;99913.09;5087559;28;20449;-52
2022/04/26 04:55:15;;;;;;;0.30;0.20;;;;;;;9.12;100.00;99918.41;5082430;28;20445;-52
2022/04/26 04:57:41;;;;;;;0.30;0.20;;;;;;;9.04;100.00;99913.31;5094107;28;20465;-52
2022/04/26 05:00:08;;;;;;;0.30;0.20;;;;;;;9.03;100.00;99914.22;5081305;28;20500;-53
2022/04/26 05:02:35;;;;;;;0.30;0.20;;;;;;;9.00;100.00;99922.25;5080318;28;20458;-53
2022/04/26 05:05:02;;;;;;;0.30;0.20;;;;;;;9.22;100.00;99919.00;5080919;28;20453;-53
2022/04/26 05:07:28;;;;;;;0.30;0.20;;;;;;;9.24;100.00;99920.69;5080464;28;20477;-53
2022/04/26 05:09:55;;;;;;;0.30;0.20;;;;;;;9.08;100.00;99922.94;5087025;28;20481;-52
2022/04/26 05:12:22;;;;;;;0.30;0.20;;;;;;;9.34;100.00;99919.53;5087430;28;20449;-53
2022/04/26 05:14:48;;;;;;;0.83;0.83;;;;;;;9.25;100.00;99921.56;5081820;28;20445;-52
2022/04/26 05:17:15;;;;;;;0.70;0.70;;;;;;;9.17;100.00;99921.78;5080305;28;20864;-53
2022/04/26 05:19:41;;;;;;;0.43;0.43;;;;;;;9.23;100.00;99921.63;5086390;28;20450;-52
2022/04/26 05:22:11;;;;;;;0.30;0.20;;;;;;;9.00;100.00;99919.59;5086914;28;20500;-53
2022/04/26 05:24:54;;;;;;;0.30;0.20;;;;;;;9.06;100.00;99923.88;5081909;28;20524;-53
2022/04/26 05:27:29;;;;;;;0.40;0.40;;;;;;;8.95;100.00;99932.13;5080003;28;20465;-53
2022/04/26 05:29:56;;;;;;;0.30;0.20;;;;;;;8.86;100.00;99927.06;5082076;28;20849;-53
2022/04/26 05:32:24;;;;;;;0.30;0.20;;;;;;;8.85;100.00;99923.56;5087012;28;20449;-53
2022/04/26 05:34:56;;;;;;;0.77;0.77;;;;;;;8.77;100.00;99922.00;5085659;28;20494;-52
2022/04/26 05:37:23;;;;;;;0.30;0.20;;;;;;;8.79;100.00;99925.53;5079911;28;20503;-52
2022/04/26 05:39:49;;;;;;;0.30;0.20;;;;;;;8.75;100.00;99929.16;5080672;28;20767;-53
2022/04/26 05:42:16;;;;;;;0.30;0.20;;;;;;;8.69;100.00;99929.31;5086781;28;20489;-53
2022/04/26 05:44:42;;;;;;;0.60;0.60;;;;;;;8.53;100.00;99939.47;5086145;28;20492;-53
2022/04/26 05:47:09;;;;;;;0.30;0.20;;;;;;;8.46;100.00;99938.72;5079377;28;20468;-53
2022/04/26 05:49:36;;;;;;;0.30;0.20;;;;;;;8.44;100.00;99945.84;5079854;28;20982;-53
2022/04/26 05:52:04;;;;;;;0.40;0.33;;;;;;;8.52;100.00;99941.25;5086639;28;20446;-52
2022/04/26 05:54:30;;;;;;;0.30;0.20;;;;;;;8.58;100.00;99934.91;5074397;28;20446;-53
2022/04/26 05:56:58;;;;;;;0.30;0.20;;;;;;;8.55;100.00;99935.84;5093040;28;20491;-52
2022/04/26 05:59:25;;;;;;;0.40;0.30;;;;;;;8.51;100.00;99943.94;5079368;28;20469;-52
2022/04/26 06:01:52;;;;;;;0.30;0.20;;;;;;;8.70;100.00;99945.19;5085489;28;20968;-52
2022/04/26 06:04:19;;;;;;;0.30;0.20;;;;;;;9.01;100.00;99945.22;5073773;28;20511;-52
2022/04/26 06:06:45;;;;;;;0.30;0.20;;;;;;;8.95;100.00;99937.44;5085547;28;20450;-52
2022/04/26 06:09:13;;;;;;;0.30;0.20;;;;;;;8.82;100.00;99938.69;5086191;28;20473;-52
2022/04/26 06:11:40;;;;;;;0.30;0.20;;;;;;;8.84;100.00;99936.84;5080537;28;20456;-52
2022/04/26 06:14:06;;;;;;;0.30;0.20;;;;;;;8.61;100.00;99943.63;5078979;28;20485;-53
2022/04/26 06:16:33;;;;;;;0.33;0.30;;;;;;;8.49;100.00;99943.94;5084843;28;20503;-52
2022/04/26 06:19:00;;;;;;;0.53;0.53;;;;;;;8.32;100.00;99940.81;5086491;28;20530;-53
2022/04/26 06:21:27;;;;;;;0.43;0.43;;;;;;;8.17;100.00;99951.78;5080811;28;20452;-52
2022/04/26 06:23:53;;;;;;;0.30;0.20;;;;;;;8.25;100.00;99955.13;5079195;28;20557;-52
2022/04/26 06:26:20;;;;;;;0.77;0.73;;;;;;;8.40;100.00;99957.44;5084696;28;20454;-52
2022/04/26 06:28:47;;;;;;;0.30;0.20;;;;;;;8.44;100.00;99966.16;5086149;28;20469;-53
2022/04/26 06:31:14;;;;;;;0.30;0.20;;;;;;;8.55;100.00;99966.78;5081147;28;20491;-52
2022/04/26 06:33:40;;;;;;;0.30;0.20;;;;;;;8.63;100.00;99959.47;5078869;28;20550;-52
2022/04/26 06:36:07;;;;;;;0.30;0.20;;;;;;;8.93;100.00;99957.81;5083945;28;20449;-53
2022/04/26 06:38:33;;;;;;;0.30;0.20;;;;;;;8.84;100.00;99955.41;5085912;28;20932;-53
2022/04/26 06:41:00;;;;;;;0.30;0.20;;;;;;;8.81;100.00;99966.09;5080610;28;20445;-53
2022/04/26 06:43:29;;;;;;;0.30;0.20;;;;;;;8.64;100.00;99969.19;5078768;28;20511;-53
2022/04/26 06:45:56;;;;;;;0.30;0.20;;;;;;;8.48;100.00;99966.03;5082948;28;20943;-52
2022/04/26 06:48:23;;;;;;;0.70;0.67;;;;;;;8.50;100.00;99971.34;5085151;28;20473;-53
2022/04/26 06:50:49;;;;;;;0.83;0.83;;;;;;;8.68;100.00;99968.19;5081875;28;20453;-53
2022/04/26 06:53:16;;;;;;;0.30;0.20;;;;;;;8.71;100.00;99976.06;5075775;28;20947;-51
2022/04/26 06:55:43;;;;;;;0.57;0.50;;;;;;;8.69;100.00;99971.72;5082610;28;20445;-53
2022/04/26 06:58:10;;;;;;;0.50;0.50;;;;;;;8.74;100.00;99969.81;5088343;28;20815;-53
2022/04/26 07:00:36;;;;;;;0.30;0.20;;;;;;;8.99;100.00;99976.19;5081987;28;20502;-52
2022/04/26 07:03:04;;;;;;;1.70;1.60;;;;;;;9.20;100.00;99970.31;5074708;28;20458;-53
2022/04/26 07:05:31;;;;;;;0.40;0.30;;;;;;;9.18;100.00;99977.44;5083016;28;20498;-53
2022/04/26 07:07:58;;;;;;;0.57;0.57;;;;;;;9.15;100.00;99974.00;5078399;28;20464;-53
2022/04/26 07:10:28;;;;;;;4.67;2.00;;;;;;;9.07;100.00;99973.34;5080830;28;20449;-53
2022/04/26 07:12:55;;;;;;;0.30;0.20;;;;;;;9.19;100.00;99976.53;5085669;28;20948;-53
2022/04/26 07:15:22;;;;;;;0.30;0.20;;;;;;;9.24;100.00;99976.38;5064785;28;20447;-52
2022/04/26 07:17:49;;;;;;;0.80;0.80;;;;;;;9.16;100.00;99978.38;5079005;28;20499;-52
2022/04/26 07:20:16;;;;;;;1.07;1.07;;;;;;;9.25;100.00;99971.97;5079816;28;20438;-53
2022/04/26 07:22:43;;;;;;;0.30;0.30;;;;;;;9.24;100.00;99973.75;5085190;28;20503;-52
2022/04/26 07:25:10;;;;;;;1.10;1.00;;;;;;;9.37;100.00;99971.59;5077692;28;20558;-52
2022/04/26 07:27:37;;;;;;;0.30;0.20;;;;;;;9.43;100.00;99979.38;5085004;28;20531;-53
2022/04/26 07:30:04;;;;;;;0.40;0.40;;;;;;;9.39;100.00;99980.38;5084713;28;20509;-53
2022/04/26 07:35:16;;;;;;;0.30;0.20;;;;;;;9.40;100.00;99984.78;5078029;28;20442;-52
2022/04/26 07:37:42;;;;;;;0.30;0.20;;;;;;;9.55;100.00;99986.13;5082784;28;20493;-52
2022/04/26 07:40:09;;;;;;;0.30;0.20;;;;;;;9.60;100.00;99990.38;5085271;28;20449;-53
2022/04/26 07:42:37;;;;;;;0.63;0.63;;;;;;;9.66;100.00;99990.19;5080943;28;20474;-53
2022/04/26 07:45:03;;;;;;;0.43;0.43;;;;;;;9.85;100.00;99984.31;5077969;28;21079;-52
2022/04/26 07:47:30;;;;;;;1.80;1.70;;;;;;;9.87;100.00;99991.34;5082280;28;20473;-49
2022/04/26 07:49:58;;;;;;;0.30;0.20;;;;;;;10.01;100.00;99981.16;5084938;28;20892;-49
2022/04/26 07:52:27;;;;;;;2.83;1.43;;;;;;;10.09;100.00;99989.75;5063742;28;20975;-49
2022/04/26 07:54:54;;;;;;;0.83;0.83;;;;;;;10.25;100.00;99991.94;5078037;28;20437;-48
2022/04/26 07:57:20;;;;;;;1.07;1.07;;;;;;;10.31;100.00;99995.28;5080826;28;20480;-49
2022/04/26 07:59:47;;;;;;;0.30;0.20;;;;;;;10.61;100.00;99993.41;5084837;28;20450;-48
2022/04/26 08:02:14;;;;;;;1.00;0.90;;;;;;;10.38;100.00;99994.16;5073116;28;20478;-48
2022/04/26 08:04:45;;;;;;;1.07;0.90;;;;;;;10.37;100.00;100003.06;5076313;28;20484;-49
2022/04/26 08:07:11;;;;;;;0.30;0.20;;;;;;;10.38;100.00;100002.13;5079519;28;20450;-50
2022/04/26 08:09:39;;;;;;;0.30;0.20;;;;;;;10.46;100.00;100003.69;5085079;28;20881;-49
2022/04/26 08:12:07;;;;;;;0.60;0.57;;;;;;;10.44;100.00;100014.38;5085971;28;20482;-49
2022/04/26 08:14:34;;;;;;;0.40;0.30;;;;;;;10.57;100.00;100015.69;5081706;28;20502;-49
2022/04/26 08:17:01;;;;;;;0.30;0.20;;;;;;;10.65;100.00;100020.75;5082247;28;20453;-50
2022/04/26 08:19:27;;;;;;;1.07;1.07;;;;;;;11.04;100.00;100028.31;5088420;28;20480;-49
2022/04/26 08:21:54;;;;;;;0.30;0.20;;;;;;;11.00;100.00;100019.56;5087593;28;20449;-49
2022/04/26 08:27:25;;;;;;;4.87;3.83;;;;;;;11.15;100.00;100031.47;5081015;28;20450;-49
2022/04/26 08:29:53;;;;;;;0.30;0.20;;;;;;;11.22;100.00;100043.59;5083317;28;20453;-49
2022/04/26 08:32:20;;;;;;;2.00;2.00;;;;;;;11.39;100.00;100049.22;5088359;28;20491;-48
2022/04/26 08:34:46;;;;;;;0.30;0.20;;;;;;;11.46;100.00;100048.06;5086849;28;20480;-49
2022/04/26 08:37:14;;;;;;;1.80;1.70;;;;;;;11.69;100.00;100057.00;5081223;28;20445;-49
2022/04/26 08:39:40;;;;;;;0.30;0.20;;;;;;;11.46;100.00;100060.50;5082252;28;20454;-49
2022/04/26 08:42:07;;;;;;;0.30;0.20;;;;;;;11.50;100.00;100059.47;5088262;28;20450;-49
2022/04/26 08:44:34;;;;;;;0.40;0.30;;;;;;;11.47;100.00;100062.25;5087280;28;20510;-49
2022/04/26 08:52:51;;;;;;;1.20;1.20;;;;;;;11.63;100.00;100079.38;5082326;28;20538;-49
2022/04/26 08:55:19;;;;;;;0.30;0.20;;;;;;;11.69;100.00;100079.19;5075215;28;20487;-49
2022/04/26 08:57:46;;;;;;;0.50;0.50;;;;;;;11.30;100.00;100091.25;5087331;28;20985;-50
2022/04/26 09:00:13;;;;;;;0.30;0.20;;;;;;;11.38;100.00;100086.53;5081814;28;20471;-49
2022/04/26 09:02:40;;;;;;;0.80;0.73;;;;;;;11.52;100.00;100087.78;5079504;28;20461;-49
2022/04/26 09:05:13;;;;;;;0.30;0.20;;;;;;;11.41;100.00;100091.75;5082205;28;20489;-48
2022/04/26 09:07:45;;;;;;;0.50;0.47;;;;;;;11.52;100.00;100093.13;5080669;28;20898;-49
2022/04/26 09:10:17;;;;;;;1.07;1.07;;;;;;;11.56;100.00;100092.06;5084590;28;20449;-48
2022/04/26 09:13:07;;;;;;;0.30;0.20;;;;;;;11.74;100.00;100100.31;5069454;28;20450;-52
2022/04/26 09:15:51;;;;;;;2.37;2.27;;;;;;;11.90;100.00;100101.50;5087371;28;20449;-49
2022/04/26 09:18:21;;;;;;;0.30;0.20;;;;;;;11.97;100.00;100097.72;5083777;28;20465;-48
2022/04/26 09:20:49;;;;;;;0.53;0.50;;;;;;;12.07;100.00;100100.91;5062583;28;20969;-49
2022/04/26 09:23:19;;;;;;;0.30;0.20;;;;;;;12.26;100.00;100095.72;5082568;28;20454;-48
2022/04/26 09:25:47;;;;;;;0.30;0.20;;;;;;;11.92;100.00;100099.66;5086913;28;20513;-49
2022/04/26 09:28:23;;;;;;;0.30;0.20;;;;;;;12.13;100.00;100104.19;5085868;28;20556;-50
2022/04/26 09:30:51;;;;;;;0.30;0.20;;;;;;;12.19;100.00;100096.88;5080356;28;20502;-50
2022/04/26 09:33:41;;;;;;;2.23;0.87;;;;;;;12.58;100.00;100105.13;5080584;28;20449;-49
2022/04/26 09:36:09;;;;;;;0.43;0.43;;;;;;;12.67;100.00;100097.63;5073200;28;20471;-50
2022/04/26 09:38:41;;;;;;;0.30;0.20;;;;;;;12.53;100.00;100105.31;5079969;28;20518;-49
2022/04/26 09:41:09;;;;;;;0.30;0.20;;;;;;;12.62;100.00;100102.28;5082964;28;20572;-49
2022/04/26 09:43:37;;;;;;;0.30;0.20;;;;;;;12.74;100.00;100100.91;5086677;28;20450;-50
2022/04/26 09:46:04;;;;;;;0.30;0.20;;;;;;;12.59;100.00;100106.84;5084556;28;20453;-48
2022/04/26 09:48:35;;;;;;;0.30;0.20;;;;;;;12.42;100.00;100104.88;5079473;28;20480;-49
2022/04/26 09:51:03;;;;;;;0.40;0.30;;;;;;;12.92;100.00;100110.84;5081483;28;20523;-49
2022/04/26 09:53:32;;;;;;;0.40;0.37;;;;;;;12.93;100.00;100109.91;5086784;28;20507;-49
2022/04/26 09:56:01;;;;;;;0.40;0.40;;;;;;;12.77;100.00;100105.28;5085968;28;20942;-51
2022/04/26 09:58:29;;;;;;;0.30;0.20;;;;;;;12.91;100.00;100111.78;5086230;28;20466;-49
2022/04/26 10:00:57;;;;;;;0.30;0.20;;;;;;;12.96;100.00;100109.78;5068263;28;20453;-49
2022/04/26 10:03:35;;;;;;;0.30;0.20;;;;;;;12.95;100.00;100115.19;5072736;28;20966;-48
2022/04/26 10:06:05;;;;;;;0.30;0.20;;;;;;;12.59;100.00;100115.72;5086520;28;20484;-49
2022/04/26 10:08:38;;;;;;;0.30;0.20;;;;;;;12.43;100.00;100117.25;5082629;28;20489;-49
2022/04/26 10:11:04;;;;;;;0.30;0.20;;;;;;;12.64;100.00;100121.75;5079265;28;20954;-49
2022/04/26 10:13:36;;;;;;;0.60;0.60;;;;;;;13.00;100.00;100118.53;5081878;28;20935;-48
2022/04/26 10:16:06;;;;;;;0.53;0.53;;;;;;;12.82;100.00;100114.81;5086544;28;20472;-49
2022/04/26 10:18:43;;;;;;;0.30;0.20;;;;;;;12.78;98.82;100117.69;5085048;28;21057;-49
2022/04/26 10:21:12;;;;;;;0.30;0.20;;;;;;;13.06;99.53;100118.28;5085439;28;20472;-49
2022/04/26 10:23:51;;;;;;;0.30;0.20;;;;;;;12.81;100.00;100114.88;5082264;28;20504;-49
2022/04/26 10:26:24;;;;;;;0.30;0.20;;;;;;;12.85;100.00;100130.69;5083263;28;20510;-49
2022/04/26 10:28:55;;;;;;;0.30;0.20;;;;;;;12.85;99.41;100119.16;5085693;28;21040;-50
2022/04/26 10:32:01;;;;;;;0.93;0.87;;;;;;;13.09;99.11;100123.47;5083489;28;20879;-49
2022/04/26 10:34:30;;;;;;;0.30;0.20;;;;;;;13.34;100.00;100123.34;5000157;28;20508;-49
2022/04/26 10:37:05;;;;;;;0.40;0.20;;;;;;;13.33;97.52;100127.84;5004079;28;20918;-51
2022/04/26 10:39:42;;;;;;;2.00;1.90;;;;;;;13.54;99.94;100133.16;5047827;28;20448;-50
2022/04/26 10:42:12;;;;;;;0.50;0.50;;;;;;;13.47;96.47;100126.38;5054048;28;20452;-50
2022/04/26 10:44:44;;;;;;;0.40;0.37;;;;;;;13.41;95.96;100142.63;5079291;28;20565;-50
2022/04/26 10:47:18;;;;;;;0.50;0.50;;;;;;;13.25;97.05;100145.09;5079993;28;20864;-48
2022/04/26 10:49:45;;;;;;;0.30;0.20;;;;;;;13.12;98.31;100155.38;5078614;28;20833;-49
2022/04/26 10:52:16;;;;;;;0.30;0.20;;;;;;;13.01;99.39;100146.94;5083119;28;20446;-50
2022/04/26 10:54:46;;;;;;;0.30;0.20;;;;;;;12.96;99.99;100157.81;5075417;28;20437;-49
2022/04/26 10:57:22;;;;;;;0.30;0.20;;;;;;;12.77;100.00;100161.28;5081578;28;20509;-49
2022/04/26 11:00:09;;;;;;;0.30;0.20;;;;;;;12.90;100.00;100165.19;5078376;28;20470;-50
2022/04/26 11:02:39;;;;;;;0.30;0.20;;;;;;;12.38;100.00;100172.56;5078017;28;20523;-49
2022/04/26 11:05:10;;;;;;;0.30;0.20;;;;;;;12.04;100.00;100183.59;5079861;28;20481;-49
2022/04/26 11:07:40;;;;;;;0.30;0.20;;;;;;;12.07;100.00;100180.84;5078443;28;20591;-50
2022/04/26 11:10:10;;;;;;;0.30;0.20;;;;;;;12.13;100.00;100176.13;5083868;28;20915;-48
2022/04/26 11:12:38;;;;;;;0.30;0.20;;;;;;;12.35;100.00;100184.22;5085607;28;20485;-48
2022/04/26 11:15:08;;;;;;;0.30;0.20;;;;;;;12.10;100.00;100184.25;5082223;28;20445;-49
2022/04/26 11:17:36;;;;;;;0.30;0.30;;;;;;;12.02;100.00;100191.63;5078336;28;20476;-48
2022/04/26 11:20:12;;;;;;;1.60;0.50;;;;;;;11.93;100.00;100185.78;5081489;28;20454;-49
2022/04/26 11:22:44;;;;;;;0.30;0.20;;;;;;;12.13;100.00;100186.78;5085308;28;20825;-48
2022/04/26 11:28:21;;;;;;;0.30;0.20;;;;;;;12.07;100.00;100187.03;5068503;28;20842;-49
2022/04/26 11:30:52;;;;;;;0.30;0.20;;;;;;;12.23;100.00;100189.13;5078249;28;20448;-48
2022/04/26 11:33:24;;;;;;;0.30;0.20;;;;;;;11.66;100.00;100188.47;5079504;28;20480;-49
2022/04/26 11:35:52;;;;;;;0.30;0.20;;;;;;;11.97;100.00;100192.72;5085569;28;20442;-49
2022/04/26 11:38:22;;;;;;;0.30;0.20;;;;;;;11.94;100.00;100191.06;5085041;28;20461;-48
2022/04/26 11:41:00;;;;;;;0.30;0.20;;;;;;;12.30;100.00;100201.28;5078816;28;20448;-52
2022/04/26 11:43:33;;;;;;;0.30;0.20;;;;;;;12.22;100.00;100201.59;5078204;28;20783;-53
2022/04/26 11:46:01;;;;;;;0.30;0.20;;;;;;;12.11;100.00;100195.78;5065412;28;21040;-53
2022/04/26 11:48:30;;;;;;;0.30;0.20;;;;;;;12.10;100.00;100204.69;5089723;28;20481;-53
2022/04/26 11:50:58;;;;;;;0.30;0.20;;;;;;;12.00;100.00;100203.28;5087191;28;21006;-53
2022/04/26 11:53:26;;;;;;;0.30;0.20;;;;;;;11.85;100.00;100194.91;5078961;28;20453;-52
2022/04/26 11:56:00;;;;;;;0.30;0.20;;;;;;;12.16;100.00;100205.31;5088203;28;20445;-53
2022/04/26 11:58:27;;;;;;;0.30;0.20;;;;;;;12.10;100.00;100210.88;5089343;28;20585;-52
2022/04/26 12:01:16;;;;;;;0.30;0.20;;;;;;;12.28;100.00;100206.66;5088516;28;20945;-53
2022/04/26 12:03:49;;;;;;;0.80;0.80;;;;;;;12.19;100.00;100217.66;5075297;28;20445;-53
2022/04/26 12:06:18;;;;;;;0.30;0.20;;;;;;;11.86;100.00;100217.94;5088402;28;20477;-53
2022/04/26 12:08:46;;;;;;;0.30;0.20;;;;;;;12.14;100.00;100222.31;5086673;28;20473;-53
2022/04/26 12:11:26;;;;;;;0.30;0.20;;;;;;;11.74;100.00;100223.66;5081818;28;20445;-53
2022/04/26 12:13:59;;;;;;;0.30;0.20;;;;;;;11.73;100.00;100223.72;5081599;28;20445;-52
2022/04/26 12:16:26;;;;;;;0.30;0.20;;;;;;;11.50;100.00;100219.16;5087043;28;20453;-52
2022/04/26 12:19:05;;;;;;;0.30;0.20;;;;;;;11.73;100.00;100223.72;5088571;28;20469;-53
2022/04/26 12:21:46;;;;;;;0.30;0.27;;;;;;;12.03;100.00;100220.00;5084844;28;20449;-53
2022/04/26 12:24:21;;;;;;;0.30;0.20;;;;;;;12.09;100.00;100226.94;5081290;28;20455;-51
2022/04/26 12:26:52;;;;;;;0.30;0.20;;;;;;;12.24;100.00;100225.50;5081833;28;21196;-52
2022/04/26 12:29:19;;;;;;;0.30;0.20;;;;;;;11.93;100.00;100231.94;5068779;28;20522;-52
2022/04/26 12:31:47;;;;;;;0.30;0.20;;;;;;;11.99;100.00;100231.72;5081365;28;20851;-51
2022/04/26 12:34:22;;;;;;;0.73;0.73;;;;;;;12.24;100.00;100237.03;5087255;28;20911;-51
2022/04/26 12:37:07;;;;;;;0.30;0.20;;;;;;;12.28;100.00;100240.44;5088105;28;20489;-51
2022/04/26 12:39:36;;;;;;;1.00;1.00;;;;;;;12.43;100.00;100232.75;5086637;28;20440;-51
2022/04/26 12:42:04;;;;;;;0.30;0.20;;;;;;;12.57;100.00;100234.91;5080942;28;20968;-51
2022/04/26 12:44:31;;;;;;;0.30;0.20;;;;;;;12.25;100.00;100230.78;5082003;28;20446;-51
2022/04/26 12:52:49;;;;;;;0.30;0.20;;;;;;;12.20;100.00;100237.19;5088005;28;20437;-51
2022/04/26 12:55:25;;;;;;;0.30;0.20;;;;;;;12.30;100.00;100243.94;5075574;28;20434;-52
2022/04/26 12:57:54;;;;;;;0.30;0.20;;;;;;;12.37;100.00;100241.00;5087606;28;20468;-51
2022/04/26 13:00:22;;;;;;;0.30;0.20;;;;;;;12.16;100.00;100245.28;5082824;28;20453;-52
2022/04/26 13:02:51;;;;;;;0.30;0.20;;;;;;;12.22;100.00;100240.69;5078546;28;20454;-52
2022/04/26 13:05:19;;;;;;;0.40;0.30;;;;;;;12.16;100.00;100247.97;5083151;28;20489;-51
2022/04/26 13:07:47;;;;;;;0.30;0.20;;;;;;;12.10;100.00;100242.88;5080812;28;20470;-51
2022/04/26 13:10:16;;;;;;;0.30;0.20;;;;;;;11.94;100.00;100252.31;5085216;28;20454;-51
2022/04/26 13:12:43;;;;;;;0.30;0.20;;;;;;;11.77;100.00;100250.19;5087138;28;20500;-52
2022/04/26 13:15:11;;;;;;;0.30;0.20;;;;;;;11.58;100.00;100255.28;5074234;28;20446;-51
2022/04/26 13:17:38;;;;;;;0.67;0.67;;;;;;;11.57;100.00;100250.00;5087350;28;20482;-51
2022/04/26 13:20:06;;;;;;;0.30;0.20;;;;;;;11.68;100.00;100258.50;5084952;28;20590;-52
2022/04/26 13:22:35;;;;;;;0.30;0.20;;;;;;;11.57;100.00;100261.53;5080410;28;20457;-51
2022/04/26 13:25:03;;;;;;;0.30;0.20;;;;;;;11.53;100.00;100256.34;5088173;28;20534;-52
2022/04/26 13:27:32;;;;;;;0.30;0.20;;;;;;;11.55;100.00;100255.38;5080238;28;20465;-51
2022/04/26 13:29:59;;;;;;;0.30;0.20;;;;;;;11.72;100.00;100259.25;5082413;28;20531;-52
2022/04/26 13:32:29;;;;;;;0.30;0.20;;;;;;;11.83;100.00;100249.16;5087036;28;20552;-51
2022/04/26 13:34:57;;;;;;;0.30;0.20;;;;;;;11.48;100.00;100260.94;5086420;28;20445;-51
2022/04/26 13:37:29;;;;;;;0.30;0.20;;;;;;;11.55;100.00;100255.38;5087179;28;20505;-52
2022/04/26 13:39:58;;;;;;;0.30;0.20;;;;;;;11.66;100.00;100265.69;5068826;28;20574;-51
2022/04/26 13:42:27;;;;;;;0.30;0.20;;;;;;;11.48;100.00;100264.47;5080826;28;20453;-52
2022/04/26 13:44:55;;;;;;;0.47;0.47;;;;;;;11.54;100.00;100269.63;5079887;28;20489;-51
2022/04/26 13:47:22;;;;;;;0.30;0.20;;;;;;;11.54;100.00;100274.06;5086614;28;20473;-52
2022/04/26 13:49:50;;;;;;;0.30;0.20;;;;;;;11.41;100.00;100284.25;5086852;28;20452;-51
2022/04/26 13:52:17;;;;;;;0.30;0.20;;;;;;;11.10;100.00;100289.66;5081270;28;20488;-52
2022/04/26 13:54:43;;;;;;;0.30;0.20;;;;;;;10.93;100.00;100283.97;5080794;28;20485;-51
2022/04/26 13:57:10;;;;;;;0.30;0.20;;;;;;;11.08;100.00;100290.59;5093560;28;20453;-51
2022/04/26 13:59:37;;;;;;;0.30;0.20;;;;;;;11.01;100.00;100294.38;5079809;28;20526;-52
2022/04/26 14:02:06;;;;;;;0.30;0.20;;;;;;;11.05;100.00;100296.03;5083390;28;20961;-51
2022/04/26 14:04:34;;;;;;;0.30;0.20;;;;;;;11.12;100.00;100300.25;5076303;28;20444;-56
2022/04/26 14:07:01;;;;;;;0.30;0.20;;;;;;;10.96;100.00;100294.50;5082695;28;20489;-51
2022/04/26 14:09:28;;;;;;;0.30;0.20;;;;;;;10.98;100.00;100295.34;5085796;28;20943;-51
2022/04/26 14:11:55;;;;;;;0.30;0.20;;;;;;;11.13;100.00;100296.66;5083520;28;20445;-51
2022/04/26 14:22:43;;;;;;;0.30;0.20;;;;;;;10.86;100.00;100304.56;5086233;28;20441;-51
2022/04/26 14:25:12;;;;;;;0.30;0.20;;;;;;;10.82;100.00;100310.00;5085430;28;20493;-52
2022/04/26 14:27:42;;;;;;;0.30;0.20;;;;;;;10.93;100.00;100302.56;5085881;28;20478;-51
2022/04/26 14:30:11;;;;;;;0.30;0.20;;;;;;;11.17;100.00;100306.28;5085966;28;20478;-52
2022/04/26 14:32:57;;;;;;;0.30;0.20;;;;;;;11.00;100.00;100300.63;5083001;28;20537;-51
2022/04/26 14:35:25;;;;;;;0.30;0.20;;;;;;;11.01;100.00;100310.34;5079093;28;20469;-51
2022/04/26 14:37:53;;;;;;;0.30;0.20;;;;;;;10.94;100.00;100310.50;5081990;28;20498;-51
2022/04/26 14:40:20;;;;;;;0.30;0.20;;;;;;;11.22;100.00;100312.31;5085822;28;20456;-52
2022/04/26 14:42:47;;;;;;;0.30;0.20;;;;;;;11.12;100.00;100311.75;5083451;28;20445;-51
2022/04/26 14:45:14;;;;;;;0.60;0.60;;;;;;;11.17;100.00;100316.94;5078792;28;20497;-51
2022/04/26 14:47:40;;;;;;;0.30;0.20;;;;;;;11.09;100.00;100319.81;5081633;28;20503;-51
2022/04/26 14:50:09;;;;;;;0.30;0.20;;;;;;;11.27;100.00;100318.41;5085371;28;20531;-52
2022/04/26 14:52:37;;;;;;;0.30;0.20;;;;;;;11.36;100.00;100318.09;5083765;28;20517;-51
2022/04/26 14:55:07;;;;;;;0.30;0.20;;;;;;;11.02;100.00;100325.38;5078602;28;20449;-51
2022/04/26 14:57:35;;;;;;;0.30;0.20;;;;;;;11.00;100.00;100320.09;5092045;28;20981;-51
2022/04/26 15:00:07;;;;;;;0.43;0.43;;;;;;;11.11;100.00;100319.78;5074258;28;20449;-51
2022/04/26 15:02:38;;;;;;;0.30;0.20;;;;;;;10.93;100.00;100318.53;5077928;28;20485;-51
2022/04/26 15:05:07;;;;;;;0.30;0.20;;;;;;;11.06;100.00;100317.25;5079936;28;20445;-51
2022/04/26 15:10:27;;;;;;;0.30;0.20;;;;;;;10.98;100.00;100320.16;5054082;28;20501;-51
2022/04/26 15:18:23;;;;;;;0.30;0.20;;;;;;;11.20;100.00;100319.50;5081338;28;20462;-52
2022/04/26 15:20:52;;;;;;;0.30;0.20;;;;;;;11.06;100.00;100319.91;5086294;28;20437;-52
2022/04/26 15:23:19;;;;;;;0.40;0.30;;;;;;;11.03;100.00;100319.13;5066393;28;20471;-52
2022/04/26 15:25:50;;;;;;;0.37;0.30;;;;;;;11.03;100.00;100321.78;5089543;28;20539;-51
2022/04/26 15:28:21;;;;;;;0.30;0.20;;;;;;;10.85;100.00;100304.59;5087707;28;20506;-51
2022/04/26 15:30:49;;;;;;;0.30;0.20;;;;;;;11.15;100.00;100305.47;5082973;28;20465;-51
2022/04/26 15:33:18;;;;;;;0.30;0.20;;;;;;;11.34;100.00;100306.63;5083212;28;20445;-51
2022/04/26 15:35:44;;;;;;;0.30;0.20;;;;;;;11.14;100.00;100311.72;5089650;28;20491;-51
2022/04/26 15:38:12;;;;;;;0.30;0.20;;;;;;;11.34;100.00;100309.28;5089262;28;20986;-52
2022/04/26 15:40:41;;;;;;;0.30;0.20;;;;;;;11.39;100.00;100311.81;5089511;28;20485;-52
2022/04/26 15:43:08;;;;;;;0.30;0.20;;;;;;;11.47;100.00;100310.66;5088777;28;20866;-52
2022/04/26 15:45:36;;;;;;;0.30;0.20;;;;;;;11.22;100.00;100323.84;5082620;28;20520;-52
2022/04/26 15:48:04;;;;;;;0.30;0.20;;;;;;;11.21;100.00;100321.22;5082138;28;20580;-52